OMAL

Details ICAO OMAL (AAN)
Name AL AIN INTL
Region United Arab Emirates
Timezone Asia/Dubai (UTC+4.0)
Plans Departing 24
Arriving 20
Stats Elevation 869 ft / 265 m (AMSL)
Location 24.261690° 55.609131°
Runways 1
Magnetic Variation 1.844° E
Sunrise 2017-12-11 02:52:17 UTC / 2017-12-11 06:52:17 Local
Sunset 2017-12-11 13:32:08 UTC / 2017-12-11 17:32:08 Local
Advertisement - Login to hide

Runways

ID Width Length Bearing (true) Bearing (mag) Surface Threshold Offset Overrun Length
01 148 ft / 45 m 13,176 ft / 4,016 m 7.40° 5.56° Asphalt 0 ft / 0 m 1,312 ft / 400 m
19 148 ft / 45 m 13,176 ft / 4,016 m 187.40° 185.56° Asphalt 0 ft / 0 m 1,080 ft / 329 m

Map

Weather


0- 5 10 15 20 25 30 35+ Temperature / ° C

Clouds and Precipitation
Forecast for 2017-12-11 06:00 UTC. Updated an hour ago

Ground ~20,000 ft ~40,000 ft Winds

METAR

OMAL 110600Z 34003KT CAVOK 20/11 Q1022 NOSIG

TAF

Not found

Frequencies

Ground 129.15 MHz GND
Approach 119.85 MHz APP
Tower 119.85 MHz TWR
Warning: Do not use this data for real-world aviation or navigation. No guarantee of current accuracy is given.